メインページ
METAR-TAF:

METAR-TAF

空港 :

ウィニペグ, マニトバ州, カナダ

ウィニペグ・ジェームス・アームストロング・リチャードソン国際空港

緯度: 49-54N, 経度: 097-14W, 海抜: 239m

現時点の気象観測

当レポートは1時間33分前の21:00(UTC)に作成
北西の風 9kt、最大15ktの突風を伴う
気温 26°C
湿度 58%
気圧 1017 hPa
視程: 19.3km
高度4500ftの雲は散在している

METAR: CYWG 262100Z 31009G15KT 12SM SCT045 26/17 A3004 RMK CU3 HZ SLP176 DENSITY ALT 2200FT

時間: 17:33 (22:33 UTC)

予報

当レポートは4時間54分前の17:39(UTC)に作成
予報は26日の 18時(UTC)から 27日の 18時(UTC)まで有効
北西の風 12kt
視程: 10km
高度3000ftの雲は散在している
26日の 2100時(UTC)から
北西の風 12kt
視程: 10km
高度5000ftの千切れ雲あり
26日の 21時(UTC)から 27日の 03時(UTC)まで一時的に
視程: 10km
弱いにわか雨
27日の 0300時(UTC)から
西/北西の風 6kt
視程: 10km
高度5000ftの雲は散在している
27日の 0800時(UTC)から
西/南西の風 5kt
視程: 10km
晴天
27日の 1700時(UTC)から
西/北西の風 8kt
視程: 10km
高度4000ftの雲は散在している

TAF: CYWG 261739Z 2618/2718 32012KT P6SM SCT030 FM262100 32012KT P6SM BKN050 TEMPO 2621/2703 P6SM -SHRA FM270300 30006KT P6SM SCT050 FM270800 24005KT P6SM SKC FM271700 30008KT P6SM SCT040 RMK NXT FCST BY 270000Z

4,000以上の空港の気象観測と天気予報(METAR報とTAF報)

利用可能な観測所は地図上に黄色い丸と赤い丸で示す。

丸の上にカーソルを重ねると観測所名を参照できる。

次にクリックすると気象観測と天気予報を参照できる。

マップの切り替え:黒色「×」印の緑ボタンをクリックして拡大、「-」印の緑ボタンをクリックして縮小、緑色の三角印をクリックして隣りの地図に切り替え


METAR-TAF: